LFBHLEXJ

Guest
Details From LFBH - La Rochelle Laleu
To LEXJ - Santander
Flight Number -
Tags generated
Created
Modified
Stats Distance 225 nm / 418 km
Max Altitude 20,400 ft / 6,218 m
Waypoints 4
Social Downloads 1
Likes 0
Share VATSIM

Download

Looking for another format? Having issues loading an existing format? Contact us
Advertisement - Login to hide

Notes

Basic altitude profile: - Ascent Rate: 2500ft/min - Ascent Speed: 250kts - Cruise Altitude: 35000ft - Cruise Speed: 420kts - Descent Rate: 1500ft/min - Descent Speed: 250kts Options: - Use NATs: yes - Use PACOTS: yes - Use low airways: yes - Use high airways: yes

Route

LFBH LEBRI UL14 POPUL LEXJ

ID Type Via Altitude Latitude Longitude Leg Dist Tot Dist Heading (true) Name
O LFBH APT - 0 ft / 0 m 46.17924˚ -1.19641˚ - 0 nm - La Rochelle Laleu
LEBRI FIX - 20,400 ft / 6,218 m 45.81111˚ -2.53361˚ 60 nm 60 nm 249° / 248° -
POPUL FIX UL14 (AWY-HI) 18,500 ft / 5,639 m 43.94863˚ -2.84015˚ 112 nm 172 nm 187° / 187° -
O LEXJ APT - 0 ft / 0 m 43.42719˚ -3.82047˚ 52 nm 225 nm 234° / 233° Santander

Altitude Profile

Advertisement - Login to hide

Weather


0- 5 10 15 20 25 30 35+ Temperature / ° C

Clouds and Precipitation
Forecast for 2017-12-16 06:00 UTC. Updated 23 minutes ago

Ground ~20,000 ft ~40,000 ft Winds

LFBH

Details ICAO LFBH (LRH)
Name La Rochelle Laleu
Region France
Timezone Europe/Paris (UTC+1.0)
Stats Elevation 74 ft / 23 m (AMSL)
Location 46.179245° -1.196410°
Runways 1
Magnetic Variation 0.301° W

METAR

LFBH 160330Z AUTO 34010KT CAVOK 06/03 Q1016 NOSIG

Decode

TAF

TAF LFBH 152300Z 1600/1624 33008KT CAVOK

Decode

Departure Runways

ID Width Length Bearing (true) Bearing (mag) Surface Threshold Offset Overrun Length
10 148 ft / 45 m 7,383 ft / 2,250 m 92.43° 92.73° Asphalt 1,033 ft / 315 m 0 ft / 0 m
28 148 ft / 45 m 7,383 ft / 2,250 m 272.45° 272.75° Asphalt 1,532 ft / 467 m 0 ft / 0 m

LEXJ

Details ICAO LEXJ (SDR)
Name Santander
Region Spain
Timezone Europe/Madrid (UTC+1.0)
Stats Elevation 16 ft / 5 m (AMSL)
Location 43.427188° -3.820470°
Runways 1
Magnetic Variation 0.912° W

METAR

Not found

TAF

TAF LEXJ 160200Z 1603/1703 28009KT 9999 SCT030 TX10/1614Z TN06/1703Z TEMPO 1603/1703 3000 RA PROB40 TEMPO 1603/1615 31015G25KT TEMPO 1603/1606 SHRA SCT030TCU

Decode

Destination Runways

ID Width Length Bearing (true) Bearing (mag) Surface Threshold Offset Overrun Length
11 148 ft / 45 m 7,597 ft / 2,316 m 110.20° 111.11° Asphalt 0 ft / 0 m 98 ft / 30 m
29 148 ft / 45 m 7,597 ft / 2,316 m 290.22° 291.13° Asphalt 0 ft / 0 m 0 ft / 0 m

Approach Navaids

Runway Type Ident Frequency Range Bearing (true) Bearing (mag) Slope Elevation
29 Localiser STA 110.90 MHz 18 nm / 33 km 290.19° 291.10° - 16 ft / 5 m (AMSL)
29 Glidescope STA 110.90 MHz 10 nm / 19 km 290.21° 291.12° 3.00° 16 ft / 5 m (AMSL)
29 DME STA 110.90 MHz 18 nm / 33 km - - - 26 ft / 8 m (AMSL)

Popular Alternatives